Time;durP1;ratioP1;P1;durP2;ratioP2;P2;SDS_P1;SDS_P2;PMS_P1;PMS_P2;Temp;Humidity;BMP_temperature;BMP_pressure;BME280_temperature;BME280_humidity;BME280_pressure;Samples;Min_cycle;Max_cycle;Signal;HPM_P1;HPM_P2
2023/06/27 00:01:45;;;;;;;4.00;1.95;;;;;;;;;;5015307;28;92367;-78
2023/06/27 00:04:13;;;;;;;4.72;2.30;;;;;;;;;;4987214;28;94998;-78
2023/06/27 00:06:42;;;;;;;3.53;2.53;;;;;;;;;;5017604;28;92246;-79
2023/06/27 00:09:10;;;;;;;5.90;2.35;;;;;;;;;;5011067;28;92524;-79
2023/06/27 00:11:37;;;;;;;6.72;3.90;;;;;;;;;;5018382;28;92377;-79
2023/06/27 00:14:05;;;;;;;6.85;2.15;;;;;;;;;;5014526;28;93918;-77
2023/06/27 00:16:32;;;;;;;7.13;2.92;;;;;;;;;;5017227;28;94502;-77
2023/06/27 00:19:03;;;;;;;4.28;2.40;;;;;;;;;;5014033;28;95270;-77
2023/06/27 00:21:30;;;;;;;6.88;2.47;;;;;;;;;;5027028;28;92497;-78
2023/06/27 00:23:57;;;;;;;2.97;2.45;;;;;;;;;;5011652;28;92324;-77
2023/06/27 00:26:24;;;;;;;7.10;2.83;;;;;;;;;;4993537;28;92395;-77
2023/06/27 00:28:51;;;;;;;4.55;3.10;;;;;;;;;;5005748;28;94708;-78
2023/06/27 00:31:17;;;;;;;4.60;3.38;;;;;;;;;;5013415;28;94156;-78
2023/06/27 00:33:45;;;;;;;10.30;3.60;;;;;;;;;;5002365;28;93253;-78
2023/06/27 00:36:12;;;;;;;6.15;2.88;;;;;;;;;;5022378;28;94632;-78
2023/06/27 00:38:39;;;;;;;5.88;3.03;;;;;;;;;;5005943;28;92539;-78
2023/06/27 00:41:06;;;;;;;6.57;2.85;;;;;;;;;;5004939;28;92183;-78
2023/06/27 00:43:33;;;;;;;7.85;2.90;;;;;;;;;;5006708;28;95328;-78
2023/06/27 00:46:02;;;;;;;7.10;3.10;;;;;;;;;;5003195;28;93171;-78
2023/06/27 00:48:29;;;;;;;7.07;3.30;;;;;;;;;;5004107;28;91961;-78
2023/06/27 00:50:57;;;;;;;5.03;3.00;;;;;;;;;;5011907;28;92370;-78
2023/06/27 00:53:28;;;;;;;9.32;3.30;;;;;;;;;;4991852;28;97229;-78
2023/06/27 00:55:54;;;;;;;7.07;3.30;;;;;;;;;;4990583;28;95273;-78
2023/06/27 00:58:21;;;;;;;7.85;2.88;;;;;;;;;;5010258;28;94953;-78
2023/06/27 01:00:48;;;;;;;5.75;3.10;;;;;;;;;;4993949;28;92302;-78
2023/06/27 01:03:14;;;;;;;7.43;3.40;;;;;;;;;;5008765;28;96042;-78
2023/06/27 01:05:42;;;;;;;8.00;3.00;;;;;;;;;;5004167;28;92842;-78
2023/06/27 01:08:16;;;;;;;6.35;2.67;;;;;;;;;;5008626;28;92434;-78
2023/06/27 01:11:02;;;;;;;6.30;3.05;;;;;;;;;;5003936;28;94529;-78
2023/06/27 01:13:32;;;;;;;6.47;3.10;;;;;;;;;;4997679;28;94929;-78
2023/06/27 01:15:59;;;;;;;8.10;3.50;;;;;;;;;;4998829;28;94140;-78
2023/06/27 01:18:27;;;;;;;6.43;2.80;;;;;;;;;;4969190;28;95744;-78
2023/06/27 01:20:55;;;;;;;5.13;3.20;;;;;;;;;;5002276;28;93961;-78
2023/06/27 01:23:24;;;;;;;8.30;3.00;;;;;;;;;;4998063;28;92461;-78
2023/06/27 01:26:01;;;;;;;15.57;3.65;;;;;;;;;;4998017;28;92478;-78
2023/06/27 01:28:28;;;;;;;7.15;3.00;;;;;;;;;;4999236;28;93043;-78
2023/06/27 01:30:54;;;;;;;10.38;2.92;;;;;;;;;;4998500;28;92147;-78
2023/06/27 01:33:24;;;;;;;9.43;3.42;;;;;;;;;;4997349;28;94838;-78
2023/06/27 01:35:54;;;;;;;9.00;3.17;;;;;;;;;;4996504;28;92866;-78
2023/06/27 01:38:27;;;;;;;7.93;3.15;;;;;;;;;;5004278;28;91972;-78
2023/06/27 01:40:56;;;;;;;6.18;2.92;;;;;;;;;;5005169;28;93245;-78
2023/06/27 01:43:23;;;;;;;7.35;3.00;;;;;;;;;;5012969;28;94840;-78
2023/06/27 01:45:50;;;;;;;8.80;3.13;;;;;;;;;;5000092;28;94251;-78
2023/06/27 01:48:17;;;;;;;5.75;2.85;;;;;;;;;;5001896;28;92604;-78
2023/06/27 01:50:44;;;;;;;8.43;3.00;;;;;;;;;;5008718;28;92328;-78
2023/06/27 01:53:10;;;;;;;9.73;2.92;;;;;;;;;;5015983;28;92594;-78
2023/06/27 01:55:37;;;;;;;12.13;3.25;;;;;;;;;;5004178;28;92379;-79
2023/06/27 01:58:04;;;;;;;7.18;3.15;;;;;;;;;;5035811;28;94832;-79
2023/06/27 02:00:30;;;;;;;12.70;2.47;;;;;;;;;;4997921;28;93385;-79
2023/06/27 02:02:57;;;;;;;7.93;3.03;;;;;;;;;;5019068;28;92711;-79
2023/06/27 02:05:24;;;;;;;11.43;3.00;;;;;;;;;;5012457;28;93005;-79
2023/06/27 02:07:50;;;;;;;6.63;3.10;;;;;;;;;;5013910;28;94671;-78
2023/06/27 02:10:17;;;;;;;7.70;3.08;;;;;;;;;;5010283;28;92241;-79
2023/06/27 02:12:43;;;;;;;9.00;3.10;;;;;;;;;;5007972;28;94461;-78
2023/06/27 02:15:10;;;;;;;7.00;2.75;;;;;;;;;;5016665;28;93227;-79
2023/06/27 02:17:37;;;;;;;11.43;2.90;;;;;;;;;;5011303;28;94991;-79
2023/06/27 02:20:04;;;;;;;8.77;2.58;;;;;;;;;;5015831;28;92625;-79
2023/06/27 02:22:32;;;;;;;8.93;3.30;;;;;;;;;;5024345;28;92264;-79
2023/06/27 02:24:59;;;;;;;6.47;2.92;;;;;;;;;;5012912;28;94166;-79
2023/06/27 02:27:25;;;;;;;10.68;2.70;;;;;;;;;;5004474;28;95054;-79
2023/06/27 02:29:52;;;;;;;9.43;2.97;;;;;;;;;;5002781;28;92298;-80
2023/06/27 02:32:18;;;;;;;6.65;3.03;;;;;;;;;;5002226;28;95071;-79
2023/06/27 02:34:45;;;;;;;16.45;3.67;;;;;;;;;;4994573;28;94105;-79
2023/06/27 02:37:11;;;;;;;10.68;3.42;;;;;;;;;;5005708;28;92208;-79
2023/06/27 02:39:38;;;;;;;5.82;4.13;;;;;;;;;;5000715;28;95184;-79
2023/06/27 02:42:05;;;;;;;8.75;2.97;;;;;;;;;;5011954;28;92117;-79
2023/06/27 02:44:31;;;;;;;4.68;2.97;;;;;;;;;;5007061;28;92308;-79
2023/06/27 02:46:58;;;;;;;11.68;3.53;;;;;;;;;;5022693;28;92104;-79
2023/06/27 02:49:24;;;;;;;9.85;3.20;;;;;;;;;;5005807;28;94722;-77
2023/06/27 02:51:54;;;;;;;10.20;2.67;;;;;;;;;;5001178;28;92311;-78
2023/06/27 02:54:20;;;;;;;3.30;2.70;;;;;;;;;;5008155;28;95264;-78
2023/06/27 02:56:47;;;;;;;8.02;3.38;;;;;;;;;;5001546;28;95133;-77
2023/06/27 02:59:13;;;;;;;8.98;3.22;;;;;;;;;;4985265;28;94080;-80
2023/06/27 03:01:40;;;;;;;13.45;3.78;;;;;;;;;;5003307;28;92126;-78
2023/06/27 03:04:09;;;;;;;7.18;3.20;;;;;;;;;;5006034;28;92930;-77
2023/06/27 03:06:47;;;;;;;6.63;2.83;;;;;;;;;;4998102;28;92181;-78
2023/06/27 03:09:13;;;;;;;5.20;3.03;;;;;;;;;;4995716;28;92671;-78
2023/06/27 03:11:40;;;;;;;5.10;2.55;;;;;;;;;;4950947;28;1213285;-78
2023/06/27 03:14:07;;;;;;;3.53;2.95;;;;;;;;;;5013831;28;93095;-78
2023/06/27 03:16:34;;;;;;;10.93;3.17;;;;;;;;;;5011241;28;92987;-77
2023/06/27 03:19:01;;;;;;;6.60;3.15;;;;;;;;;;4995940;28;93190;-78
2023/06/27 03:21:27;;;;;;;10.85;3.58;;;;;;;;;;5009760;28;94790;-78
2023/06/27 03:23:54;;;;;;;10.18;2.92;;;;;;;;;;5008599;28;94517;-77
2023/06/27 03:26:24;;;;;;;4.45;2.75;;;;;;;;;;4999164;28;94084;-77
2023/06/27 03:28:50;;;;;;;8.55;3.00;;;;;;;;;;5019242;28;95063;-77
2023/06/27 03:31:17;;;;;;;7.90;3.25;;;;;;;;;;5007130;28;92439;-77
2023/06/27 03:33:44;;;;;;;10.25;3.05;;;;;;;;;;4996407;28;94922;-78
2023/06/27 03:36:14;;;;;;;6.13;2.97;;;;;;;;;;5002923;28;92931;-78
2023/06/27 03:38:41;;;;;;;8.30;3.40;;;;;;;;;;5006343;28;95075;-78
2023/06/27 03:41:07;;;;;;;6.53;3.28;;;;;;;;;;5004330;28;91648;-78
2023/06/27 03:43:34;;;;;;;9.57;3.65;;;;;;;;;;5006147;28;93156;-78
2023/06/27 03:46:00;;;;;;;4.90;3.08;;;;;;;;;;5006628;28;94706;-78
2023/06/27 03:48:27;;;;;;;6.78;3.42;;;;;;;;;;5005876;28;92436;-78
2023/06/27 03:50:53;;;;;;;4.50;2.83;;;;;;;;;;5001991;28;95503;-78
2023/06/27 03:53:20;;;;;;;6.10;2.08;;;;;;;;;;5008895;28;96256;-78
2023/06/27 03:55:47;;;;;;;7.32;3.20;;;;;;;;;;5003928;28;92275;-78
2023/06/27 03:58:13;;;;;;;9.02;3.17;;;;;;;;;;4997596;28;94428;-78
2023/06/27 04:00:41;;;;;;;9.38;3.53;;;;;;;;;;4996703;28;95001;-78
2023/06/27 04:03:08;;;;;;;7.88;3.08;;;;;;;;;;4998633;28;92334;-77
2023/06/27 04:05:35;;;;;;;8.77;3.72;;;;;;;;;;4993798;28;94400;-77
2023/06/27 04:08:01;;;;;;;10.20;3.10;;;;;;;;;;5009721;28;92354;-77
2023/06/27 04:10:28;;;;;;;16.90;3.63;;;;;;;;;;4994140;28;95905;-78
2023/06/27 04:12:56;;;;;;;6.72;3.10;;;;;;;;;;4998542;28;92570;-79
2023/06/27 04:15:22;;;;;;;10.43;3.80;;;;;;;;;;4999782;28;92233;-78
2023/06/27 04:17:50;;;;;;;6.57;2.75;;;;;;;;;;5000238;28;92026;-78
2023/06/27 04:20:16;;;;;;;6.13;2.80;;;;;;;;;;4986969;28;93956;-78
2023/06/27 04:22:43;;;;;;;6.90;2.97;;;;;;;;;;4996691;28;92645;-79
2023/06/27 04:25:11;;;;;;;5.28;2.70;;;;;;;;;;4995218;28;95982;-78
2023/06/27 04:27:38;;;;;;;8.23;2.90;;;;;;;;;;4997605;28;92975;-78
2023/06/27 04:30:05;;;;;;;7.75;3.25;;;;;;;;;;5010419;28;93597;-79
2023/06/27 04:32:34;;;;;;;14.18;3.70;;;;;;;;;;5014071;28;92448;-78
2023/06/27 04:35:02;;;;;;;6.15;3.03;;;;;;;;;;5006080;28;94588;-78
2023/06/27 04:37:29;;;;;;;9.50;2.90;;;;;;;;;;5002007;28;95295;-78
2023/06/27 04:39:56;;;;;;;7.47;3.50;;;;;;;;;;5005196;28;92186;-78
2023/06/27 04:42:22;;;;;;;11.32;4.03;;;;;;;;;;5008618;28;92425;-78
2023/06/27 04:44:49;;;;;;;13.77;3.90;;;;;;;;;;5012270;28;92756;-78
2023/06/27 04:47:16;;;;;;;13.82;5.00;;;;;;;;;;4996521;28;92464;-78
2023/06/27 04:49:42;;;;;;;9.45;3.90;;;;;;;;;;5003364;28;92343;-78
2023/06/27 04:52:09;;;;;;;14.95;3.88;;;;;;;;;;4997174;28;92223;-78
2023/06/27 04:54:36;;;;;;;12.00;3.75;;;;;;;;;;5012511;28;92348;-78
2023/06/27 04:57:03;;;;;;;15.00;4.88;;;;;;;;;;5007415;28;92566;-78
2023/06/27 04:59:38;;;;;;;10.68;4.43;;;;;;;;;;5008733;28;94959;-78
2023/06/27 05:02:05;;;;;;;11.52;4.72;;;;;;;;;;4998730;28;92597;-78
2023/06/27 05:04:32;;;;;;;15.27;4.05;;;;;;;;;;5000618;28;92998;-79
2023/06/27 05:06:58;;;;;;;9.90;4.30;;;;;;;;;;4994699;28;92118;-79
2023/06/27 05:09:25;;;;;;;17.08;4.75;;;;;;;;;;4988711;28;92517;-79
2023/06/27 05:11:52;;;;;;;18.75;5.82;;;;;;;;;;4996159;28;93932;-78
2023/06/27 05:14:18;;;;;;;12.15;3.65;;;;;;;;;;4995093;28;92581;-78
2023/06/27 05:16:45;;;;;;;11.98;3.60;;;;;;;;;;4997130;28;92218;-78
2023/06/27 05:19:11;;;;;;;18.58;4.93;;;;;;;;;;4993499;28;92228;-78
2023/06/27 05:21:38;;;;;;;22.40;5.10;;;;;;;;;;4979146;28;93148;-78
2023/06/27 05:24:05;;;;;;;16.90;4.05;;;;;;;;;;4981383;28;94858;-78
2023/06/27 05:26:32;;;;;;;18.85;5.00;;;;;;;;;;5012603;28;92449;-78
2023/06/27 05:28:59;;;;;;;11.95;4.78;;;;;;;;;;5018859;28;94043;-78
2023/06/27 05:31:26;;;;;;;22.45;4.25;;;;;;;;;;5004727;28;94178;-79
2023/06/27 05:33:54;;;;;;;15.85;5.00;;;;;;;;;;5003045;28;92296;-78
2023/06/27 05:36:21;;;;;;;20.23;4.50;;;;;;;;;;4988814;28;92343;-79
2023/06/27 05:38:48;;;;;;;17.15;4.68;;;;;;;;;;5004807;28;92718;-79
2023/06/27 05:41:18;;;;;;;24.27;6.80;;;;;;;;;;5001715;28;93154;-79
2023/06/27 05:43:45;;;;;;;24.80;4.72;;;;;;;;;;5001061;28;92842;-78
2023/06/27 05:46:11;;;;;;;23.00;4.70;;;;;;;;;;5016310;28;93316;-78
2023/06/27 05:48:39;;;;;;;17.33;4.60;;;;;;;;;;5008640;28;94807;-78
2023/06/27 05:51:06;;;;;;;24.65;5.22;;;;;;;;;;5002506;28;92185;-79
2023/06/27 05:53:33;;;;;;;15.63;5.10;;;;;;;;;;5010957;28;91963;-79
2023/06/27 05:56:00;;;;;;;21.85;5.10;;;;;;;;;;5012530;28;93852;-79
2023/06/27 05:58:26;;;;;;;22.75;5.35;;;;;;;;;;5010527;28;92506;-78
2023/06/27 06:00:54;;;;;;;15.70;4.57;;;;;;;;;;5002525;28;92314;-79
2023/06/27 06:03:22;;;;;;;15.77;4.80;;;;;;;;;;5013272;28;93064;-79
2023/06/27 06:05:49;;;;;;;21.45;6.18;;;;;;;;;;5005785;28;92458;-78
2023/06/27 06:08:15;;;;;;;37.50;6.70;;;;;;;;;;5007697;28;93191;-79
2023/06/27 06:10:42;;;;;;;20.67;5.07;;;;;;;;;;5007042;28;92162;-79
2023/06/27 06:13:09;;;;;;;12.30;4.15;;;;;;;;;;5008038;28;94784;-78
2023/06/27 06:15:35;;;;;;;10.95;4.10;;;;;;;;;;5010331;28;94822;-79
2023/06/27 06:18:02;;;;;;;19.33;4.85;;;;;;;;;;5009674;28;92083;-79
2023/06/27 06:20:29;;;;;;;17.02;3.42;;;;;;;;;;5004732;28;95753;-79
2023/06/27 06:22:56;;;;;;;17.50;3.67;;;;;;;;;;5017832;28;95037;-78
2023/06/27 06:25:22;;;;;;;10.90;3.58;;;;;;;;;;5002559;28;92616;-79
2023/06/27 06:27:49;;;;;;;20.02;3.45;;;;;;;;;;5017685;28;92828;-78
2023/06/27 06:30:15;;;;;;;16.10;4.47;;;;;;;;;;5014805;28;91579;-79
2023/06/27 06:32:42;;;;;;;9.38;2.63;;;;;;;;;;5010609;28;94860;-79
2023/06/27 06:35:09;;;;;;;15.70;2.95;;;;;;;;;;5003883;28;92352;-79
2023/06/27 06:37:36;;;;;;;10.15;2.25;;;;;;;;;;5005317;28;94647;-80
2023/06/27 06:40:03;;;;;;;10.25;2.47;;;;;;;;;;4995761;28;92588;-79
2023/06/27 06:42:30;;;;;;;5.82;1.73;;;;;;;;;;5000572;28;93189;-79
2023/06/27 06:44:58;;;;;;;6.03;1.70;;;;;;;;;;5008672;28;92178;-79
2023/06/27 06:47:26;;;;;;;7.35;2.25;;;;;;;;;;5005615;28;95258;-79
2023/06/27 06:49:53;;;;;;;10.07;2.10;;;;;;;;;;5018219;28;93946;-79
2023/06/27 06:52:20;;;;;;;13.93;2.33;;;;;;;;;;5006458;28;92409;-82
2023/06/27 06:54:47;;;;;;;8.50;2.30;;;;;;;;;;5036068;27;91770;-79
2023/06/27 06:57:13;;;;;;;15.23;2.40;;;;;;;;;;5010858;28;92508;-79
2023/06/27 06:59:40;;;;;;;9.25;1.88;;;;;;;;;;4998045;28;92429;-78
2023/06/27 07:02:06;;;;;;;5.75;1.60;;;;;;;;;;5002983;28;94935;-80
2023/06/27 07:04:33;;;;;;;6.18;1.67;;;;;;;;;;4996880;28;93379;-78
2023/06/27 07:07:00;;;;;;;9.38;1.85;;;;;;;;;;4990959;28;92448;-78
2023/06/27 07:09:28;;;;;;;7.63;1.98;;;;;;;;;;5005090;28;92651;-79
2023/06/27 07:11:55;;;;;;;10.90;2.92;;;;;;;;;;5003713;28;92599;-79
2023/06/27 07:14:21;;;;;;;5.78;2.05;;;;;;;;;;5012715;28;94645;-80
2023/06/27 07:16:48;;;;;;;14.05;2.03;;;;;;;;;;4994512;28;93282;-79
2023/06/27 07:19:15;;;;;;;12.98;1.65;;;;;;;;;;5000860;28;95074;-79
2023/06/27 07:21:41;;;;;;;5.55;1.33;;;;;;;;;;4999265;28;92891;-79
2023/06/27 07:24:08;;;;;;;4.80;1.20;;;;;;;;;;4993503;28;93175;-78
2023/06/27 07:26:34;;;;;;;3.58;0.85;;;;;;;;;;5013755;28;94709;-78
2023/06/27 07:29:01;;;;;;;3.95;0.98;;;;;;;;;;5018323;28;93947;-79
2023/06/27 07:31:27;;;;;;;6.85;1.30;;;;;;;;;;5019219;28;92491;-79
2023/06/27 07:33:55;;;;;;;6.57;1.55;;;;;;;;;;5013229;28;93370;-78
2023/06/27 07:36:22;;;;;;;6.13;1.02;;;;;;;;;;5019328;28;92861;-79
2023/06/27 07:38:48;;;;;;;9.38;1.67;;;;;;;;;;5006702;28;92434;-79
2023/06/27 07:41:15;;;;;;;3.78;1.10;;;;;;;;;;5002376;28;91944;-78
2023/06/27 07:43:42;;;;;;;7.35;2.03;;;;;;;;;;5020381;28;91982;-79
2023/06/27 07:46:08;;;;;;;4.43;1.42;;;;;;;;;;5021212;28;93025;-79
2023/06/27 07:48:35;;;;;;;9.88;1.20;;;;;;;;;;5003865;28;92477;-79
2023/06/27 07:51:02;;;;;;;6.75;1.45;;;;;;;;;;5012599;28;94965;-79
2023/06/27 07:53:29;;;;;;;6.38;1.48;;;;;;;;;;5013290;28;92211;-79
2023/06/27 07:55:55;;;;;;;5.22;1.30;;;;;;;;;;5015434;28;92054;-79
2023/06/27 07:58:22;;;;;;;5.95;2.35;;;;;;;;;;5017813;28;93628;-79
2023/06/27 08:00:49;;;;;;;4.45;1.13;;;;;;;;;;4997095;28;92745;-79
2023/06/27 08:03:15;;;;;;;4.78;1.58;;;;;;;;;;5002702;28;92461;-79
2023/06/27 08:05:42;;;;;;;1.65;0.77;;;;;;;;;;5006451;28;92394;-79
2023/06/27 08:08:10;;;;;;;4.57;1.30;;;;;;;;;;5004204;28;92155;-79
2023/06/27 08:10:37;;;;;;;10.63;1.50;;;;;;;;;;5000073;28;92340;-79
2023/06/27 08:13:04;;;;;;;3.85;1.20;;;;;;;;;;5009710;28;92275;-79
2023/06/27 08:15:31;;;;;;;2.47;0.80;;;;;;;;;;5001187;28;94811;-79
2023/06/27 08:17:58;;;;;;;4.28;1.20;;;;;;;;;;5006421;28;94218;-77
2023/06/27 08:20:25;;;;;;;2.65;0.98;;;;;;;;;;4999868;28;92056;-78
2023/06/27 08:22:51;;;;;;;5.95;1.20;;;;;;;;;;5010217;28;92486;-77
2023/06/27 08:25:18;;;;;;;8.20;2.42;;;;;;;;;;5005259;28;92590;-78
2023/06/27 08:27:44;;;;;;;9.65;0.90;;;;;;;;;;5019737;28;92352;-79
2023/06/27 08:30:11;;;;;;;3.53;0.82;;;;;;;;;;5012433;28;92318;-78
2023/06/27 08:32:38;;;;;;;4.22;1.02;;;;;;;;;;5016064;28;92996;-78
2023/06/27 08:35:06;;;;;;;4.03;1.17;;;;;;;;;;5006310;28;92294;-78
2023/06/27 08:37:33;;;;;;;3.78;1.00;;;;;;;;;;5015197;28;92389;-79
2023/06/27 08:39:59;;;;;;;1.42;0.55;;;;;;;;;;5012386;28;94455;-78
2023/06/27 08:42:27;;;;;;;5.07;1.10;;;;;;;;;;5015410;28;92324;-78
2023/06/27 08:44:54;;;;;;;4.43;0.93;;;;;;;;;;5015649;28;93983;-79
2023/06/27 08:47:25;;;;;;;7.47;1.50;;;;;;;;;;5010901;28;92361;-78
2023/06/27 08:49:56;;;;;;;3.33;1.27;;;;;;;;;;5017377;28;92449;-79
2023/06/27 08:52:23;;;;;;;4.32;1.15;;;;;;;;;;5012789;28;92456;-79
2023/06/27 08:54:53;;;;;;;3.20;0.98;;;;;;;;;;5011577;28;92676;-78
2023/06/27 08:57:21;;;;;;;5.50;1.00;;;;;;;;;;5006964;28;92199;-78
2023/06/27 08:59:48;;;;;;;6.55;1.33;;;;;;;;;;4983552;28;94196;-78
2023/06/27 09:02:15;;;;;;;4.70;1.02;;;;;;;;;;4995292;28;91925;-78
2023/06/27 09:04:43;;;;;;;2.15;1.00;;;;;;;;;;5005841;28;95305;-78
2023/06/27 09:07:10;;;;;;;5.60;1.38;;;;;;;;;;5003407;28;94503;-79
2023/06/27 09:09:38;;;;;;;4.97;1.27;;;;;;;;;;5003759;28;92298;-79
2023/06/27 09:12:06;;;;;;;12.35;0.93;;;;;;;;;;5004542;28;91966;-79
2023/06/27 09:14:33;;;;;;;7.55;1.58;;;;;;;;;;5001724;28;96239;-79
2023/06/27 09:17:00;;;;;;;6.55;1.27;;;;;;;;;;4991533;28;92185;-78
2023/06/27 09:19:27;;;;;;;9.95;1.88;;;;;;;;;;5004371;28;92411;-80
2023/06/27 09:21:54;;;;;;;5.13;1.48;;;;;;;;;;5005873;28;92008;-78
2023/06/27 09:24:22;;;;;;;5.43;1.33;;;;;;;;;;5006758;28;92179;-79
2023/06/27 09:26:49;;;;;;;5.60;1.38;;;;;;;;;;5009568;28;94860;-79
2023/06/27 09:29:15;;;;;;;5.68;1.52;;;;;;;;;;5003286;28;95302;-79
2023/06/27 09:31:42;;;;;;;5.82;1.40;;;;;;;;;;5010427;28;94239;-79
2023/06/27 09:34:09;;;;;;;6.15;1.40;;;;;;;;;;5011243;28;92401;-79
2023/06/27 09:36:36;;;;;;;7.68;1.40;;;;;;;;;;5012488;28;92520;-79
2023/06/27 09:39:07;;;;;;;8.43;1.83;;;;;;;;;;5016271;28;92113;-79
2023/06/27 09:41:46;;;;;;;6.40;1.42;;;;;;;;;;5007147;28;93026;-79
2023/06/27 09:44:19;;;;;;;3.70;1.17;;;;;;;;;;5018531;28;92208;-78
2023/06/27 09:46:47;;;;;;;5.03;1.00;;;;;;;;;;5019141;28;91961;-79
2023/06/27 09:49:17;;;;;;;6.78;1.25;;;;;;;;;;5003578;28;92124;-78
2023/06/27 09:51:44;;;;;;;4.72;1.10;;;;;;;;;;5003533;28;92390;-78
2023/06/27 09:54:11;;;;;;;5.75;1.38;;;;;;;;;;5009229;28;94756;-79
2023/06/27 09:56:41;;;;;;;4.72;1.02;;;;;;;;;;5016076;28;92939;-79
2023/06/27 09:59:08;;;;;;;5.32;1.25;;;;;;;;;;5012743;28;92223;-79
2023/06/27 10:01:55;;;;;;;3.88;1.15;;;;;;;;;;5001848;28;92373;-78
2023/06/27 10:04:23;;;;;;;6.82;1.20;;;;;;;;;;4996603;28;92515;-78
2023/06/27 10:07:07;;;;;;;3.83;0.98;;;;;;;;;;4996971;28;92476;-79
2023/06/27 10:09:35;;;;;;;3.00;1.00;;;;;;;;;;4999004;28;92460;-79
2023/06/27 10:12:02;;;;;;;13.38;1.88;;;;;;;;;;4999909;28;92968;-80
2023/06/27 10:14:28;;;;;;;11.30;1.05;;;;;;;;;;5001113;28;93775;-80
2023/06/27 10:16:56;;;;;;;7.00;1.02;;;;;;;;;;4985446;28;94259;-80
2023/06/27 10:19:23;;;;;;;7.45;1.33;;;;;;;;;;4996906;28;94859;-80
2023/06/27 10:21:49;;;;;;;2.70;1.25;;;;;;;;;;5015184;28;95384;-79
2023/06/27 10:24:16;;;;;;;3.53;0.85;;;;;;;;;;5008288;28;95944;-79
2023/06/27 10:26:51;;;;;;;5.88;1.13;;;;;;;;;;5010905;28;94655;-79
2023/06/27 10:29:29;;;;;;;7.25;1.15;;;;;;;;;;4995794;28;94988;-79
2023/06/27 10:31:56;;;;;;;7.75;1.10;;;;;;;;;;5004657;28;92339;-79
2023/06/27 10:34:28;;;;;;;4.75;1.27;;;;;;;;;;5010243;28;92270;-80
2023/06/27 10:36:54;;;;;;;4.68;1.13;;;;;;;;;;4994742;28;94686;-80
2023/06/27 10:39:25;;;;;;;9.18;1.55;;;;;;;;;;5015281;28;92345;-79
2023/06/27 10:42:05;;;;;;;10.27;1.27;;;;;;;;;;5008833;28;92343;-80
2023/06/27 10:44:36;;;;;;;2.25;1.00;;;;;;;;;;5015172;28;95581;-80
2023/06/27 10:47:15;;;;;;;3.00;0.90;;;;;;;;;;5014280;28;92586;-80
2023/06/27 10:49:48;;;;;;;4.07;1.20;;;;;;;;;;5015122;28;93845;-80
2023/06/27 10:52:22;;;;;;;6.60;0.90;;;;;;;;;;4991191;28;93377;-80
2023/06/27 10:55:07;;;;;;;4.22;1.63;;;;;;;;;;5015927;28;93223;-80
2023/06/27 10:57:40;;;;;;;14.15;1.20;;;;;;;;;;5011364;28;94557;-80
2023/06/27 11:00:13;;;;;;;3.63;1.05;;;;;;;;;;5008215;28;94614;-80
2023/06/27 11:02:44;;;;;;;6.80;1.30;;;;;;;;;;4994086;28;92096;-80
2023/06/27 11:05:17;;;;;;;6.03;1.40;;;;;;;;;;5001992;28;92428;-79
2023/06/27 11:07:54;;;;;;;12.05;1.50;;;;;;;;;;5003985;28;93085;-80
2023/06/27 11:10:28;;;;;;;5.20;0.90;;;;;;;;;;4998629;28;94654;-80
2023/06/27 11:13:14;;;;;;;2.17;0.90;;;;;;;;;;5002191;28;92270;-80
2023/06/27 11:15:44;;;;;;;6.32;1.08;;;;;;;;;;5007533;28;92890;-80
2023/06/27 11:18:12;;;;;;;6.07;1.67;;;;;;;;;;5002472;28;92993;-80
2023/06/27 11:20:40;;;;;;;3.58;0.85;;;;;;;;;;4994879;28;92202;-79
2023/06/27 11:23:07;;;;;;;5.78;0.80;;;;;;;;;;5005512;28;92440;-79
2023/06/27 11:25:42;;;;;;;5.38;1.05;;;;;;;;;;5000171;28;92407;-80
2023/06/27 11:28:10;;;;;;;5.75;1.23;;;;;;;;;;5004406;28;92320;-80
2023/06/27 11:30:38;;;;;;;3.10;1.08;;;;;;;;;;5005493;28;92547;-79
2023/06/27 11:33:06;;;;;;;6.88;1.55;;;;;;;;;;5012198;28;92584;-80
2023/06/27 11:35:33;;;;;;;3.25;1.20;;;;;;;;;;5007653;28;94999;-79
2023/06/27 11:38:00;;;;;;;5.22;1.10;;;;;;;;;;5013503;28;98243;-80
2023/06/27 11:40:27;;;;;;;5.80;1.05;;;;;;;;;;5005742;28;92285;-79
2023/06/27 11:43:01;;;;;;;3.72;0.80;;;;;;;;;;5004472;28;92504;-79
2023/06/27 11:45:28;;;;;;;7.45;1.65;;;;;;;;;;5009400;28;95774;-80
2023/06/27 11:47:55;;;;;;;6.72;0.98;;;;;;;;;;5015651;28;92492;-79
2023/06/27 11:50:22;;;;;;;6.70;1.55;;;;;;;;;;5005243;28;92378;-80
2023/06/27 11:52:49;;;;;;;3.80;1.20;;;;;;;;;;5008176;28;91799;-79
2023/06/27 11:55:16;;;;;;;6.40;1.60;;;;;;;;;;4999764;28;92531;-79
2023/06/27 11:57:43;;;;;;;7.13;1.50;;;;;;;;;;5004643;28;92558;-79
2023/06/27 12:00:30;;;;;;;5.22;1.55;;;;;;;;;;5002455;28;94841;-79
2023/06/27 12:03:00;;;;;;;4.63;1.23;;;;;;;;;;4993327;28;97626;-80
2023/06/27 12:05:28;;;;;;;10.18;1.00;;;;;;;;;;4995608;28;92509;-80
2023/06/27 12:08:04;;;;;;;5.88;1.45;;;;;;;;;;4997110;28;92361;-79
2023/06/27 12:10:32;;;;;;;4.43;1.38;;;;;;;;;;4999684;28;92474;-79
2023/06/27 12:13:00;;;;;;;4.20;1.35;;;;;;;;;;4997175;28;92354;-79
2023/06/27 12:15:27;;;;;;;3.72;0.98;;;;;;;;;;4992202;28;92575;-79
2023/06/27 12:17:54;;;;;;;2.05;0.80;;;;;;;;;;4993068;28;91402;-80
2023/06/27 12:20:24;;;;;;;2.70;1.33;;;;;;;;;;4998799;28;92577;-80
2023/06/27 12:22:51;;;;;;;1.20;0.75;;;;;;;;;;5012190;28;92424;-79
2023/06/27 12:25:17;;;;;;;5.63;1.45;;;;;;;;;;5000028;28;95471;-78
2023/06/27 12:27:44;;;;;;;6.60;1.10;;;;;;;;;;5012998;28;92267;-78
2023/06/27 12:30:13;;;;;;;7.40;1.20;;;;;;;;;;5001801;28;95130;-79
2023/06/27 12:32:40;;;;;;;1.67;0.88;;;;;;;;;;5018848;28;92428;-78
2023/06/27 12:35:07;;;;;;;9.70;1.40;;;;;;;;;;5011853;28;92537;-78
2023/06/27 12:37:34;;;;;;;13.68;1.50;;;;;;;;;;5016710;28;92466;-79
2023/06/27 12:40:01;;;;;;;6.82;1.20;;;;;;;;;;5008481;28;94087;-78
2023/06/27 12:42:28;;;;;;;6.07;1.30;;;;;;;;;;5018882;28;93123;-78
2023/06/27 12:44:55;;;;;;;12.55;1.67;;;;;;;;;;5016319;28;92526;-79
2023/06/27 12:47:22;;;;;;;4.68;1.20;;;;;;;;;;5007440;28;93007;-78
2023/06/27 12:49:49;;;;;;;6.93;1.15;;;;;;;;;;5010478;28;95066;-79
2023/06/27 12:52:15;;;;;;;5.50;1.13;;;;;;;;;;5011935;28;92377;-79
2023/06/27 12:54:42;;;;;;;6.00;1.40;;;;;;;;;;5016330;28;93307;-79
2023/06/27 12:57:08;;;;;;;4.97;1.25;;;;;;;;;;5015854;28;92283;-79
2023/06/27 12:59:35;;;;;;;4.03;1.30;;;;;;;;;;5003811;28;93244;-78
2023/06/27 13:02:02;;;;;;;8.10;1.42;;;;;;;;;;4985369;28;92147;-78
2023/06/27 13:04:31;;;;;;;7.75;1.25;;;;;;;;;;5000402;28;92377;-79
2023/06/27 13:06:59;;;;;;;4.82;1.08;;;;;;;;;;5002064;28;93466;-79
2023/06/27 13:09:25;;;;;;;4.38;1.20;;;;;;;;;;5001840;28;92582;-78
2023/06/27 13:11:53;;;;;;;6.22;1.35;;;;;;;;;;5002686;28;92338;-79
2023/06/27 13:14:20;;;;;;;3.55;1.50;;;;;;;;;;4990591;28;94405;-79
2023/06/27 13:16:49;;;;;;;4.20;0.98;;;;;;;;;;5004800;28;94017;-78
2023/06/27 13:19:16;;;;;;;7.32;1.00;;;;;;;;;;4988032;28;92443;-78
2023/06/27 13:21:44;;;;;;;9.88;1.55;;;;;;;;;;5015059;28;93754;-79
2023/06/27 13:24:11;;;;;;;5.40;1.48;;;;;;;;;;5005485;28;92134;-78
2023/06/27 13:26:38;;;;;;;6.78;1.45;;;;;;;;;;5013111;28;92973;-78
2023/06/27 13:29:08;;;;;;;4.82;1.35;;;;;;;;;;5004400;28;92839;-79
2023/06/27 13:31:34;;;;;;;7.30;1.48;;;;;;;;;;5013928;28;93124;-79
2023/06/27 13:34:02;;;;;;;11.52;1.30;;;;;;;;;;5011495;28;92787;-78
2023/06/27 13:36:30;;;;;;;7.38;1.73;;;;;;;;;;5013772;28;92931;-78
2023/06/27 13:38:58;;;;;;;4.82;1.30;;;;;;;;;;5015818;28;95639;-79
